AAL1883 KDFW-KJAC
Flight info
| Callsign | AAL1883 |
|---|---|
| Flight time | 2h 37m |
| Altitude | 34000 |
| Route | HUDAD2 HUDAD PNH CKW DNW |
| Aircraft | A319/M-SDE3FGHIRWY/LB1 |
Departure
| Time | 2026-05-04 16:08 |
|---|---|
| Airport | Dallas Fort Worth International Airport (KDFW) |
Arrival
| Time | 2026-05-04 18:46 |
|---|---|
| Airport | Jackson Hole Airport (KJAC) |
| Time | Latitude | Longitude | Altitude | Speed | Heading |
|---|---|---|---|---|---|
| 2026-05-04 15:40 | 32.90193 | -97.04334 | 596 ft | 0 kts | 20° |
| 2026-05-04 15:57 | 32.90175 | -97.04342 | 596 ft | 4 kts | 20° |
| 2026-05-04 15:57 | 32.90155 | -97.04351 | 596 ft | 4 kts | 14° |
| 2026-05-04 15:57 | 32.90132 | -97.04349 | 596 ft | 2 kts | 339° |
| 2026-05-04 15:58 | 32.90113 | -97.04341 | 597 ft | 1 kts | 339° |
| 2026-05-04 16:01 | 32.90121 | -97.04345 | 597 ft | 3 kts | 330° |
| 2026-05-04 16:01 | 32.90132 | -97.04377 | 608 ft | 5 kts | 279° |
| 2026-05-04 16:01 | 32.90134 | -97.04424 | 596 ft | 6 kts | 273° |
| 2026-05-04 16:01 | 32.90135 | -97.04483 | 596 ft | 8 kts | 270° |
| 2026-05-04 16:02 | 32.90134 | -97.04558 | 597 ft | 12 kts | 269° |
| 2026-05-04 16:02 | 32.90134 | -97.04682 | 597 ft | 16 kts | 270° |
| 2026-05-04 16:02 | 32.90172 | -97.04887 | 599 ft | 14 kts | 355° |
| 2026-05-04 16:03 | 32.90274 | -97.04887 | 600 ft | 15 kts | 1° |
| 2026-05-04 16:03 | 32.90385 | -97.04884 | 599 ft | 17 kts | 1° |
| 2026-05-04 16:03 | 32.90504 | -97.04884 | 600 ft | 17 kts | 0° |
| 2026-05-04 16:03 | 32.90623 | -97.04883 | 602 ft | 17 kts | 0° |
| 2026-05-04 16:04 | 32.90739 | -97.04882 | 616 ft | 17 kts | 0° |
| 2026-05-04 16:04 | 32.90972 | -97.04880 | 616 ft | 16 kts | 0° |
| 2026-05-04 16:04 | 32.91082 | -97.04879 | 614 ft | 16 kts | 0° |
| 2026-05-04 16:05 | 32.91194 | -97.04878 | 616 ft | 17 kts | 0° |
| 2026-05-04 16:05 | 32.91313 | -97.04878 | 614 ft | 18 kts | 360° |
| 2026-05-04 16:05 | 32.91541 | -97.04884 | 620 ft | 12 kts | 341° |
| 2026-05-04 16:06 | 32.91565 | -97.04934 | 617 ft | 1 kts | 275° |
| 2026-05-04 16:06 | 32.91566 | -97.04954 | 612 ft | 2 kts | 274° |
| 2026-05-04 16:07 | 32.91568 | -97.05009 | 611 ft | 10 kts | 269° |
| 2026-05-04 16:07 | 32.90839 | -97.05077 | 610 ft | 112 kts | 180° |
| 2026-05-04 16:08 | 32.89891 | -97.05082 | 723 ft | 150 kts | 181° |
| 2026-05-04 16:08 | 32.86751 | -97.05082 | 2602 ft | 160 kts | 194° |
| 2026-05-04 16:09 | 32.84323 | -97.05874 | 3375 ft | 207 kts | 198° |
| 2026-05-04 16:09 | 32.81350 | -97.06862 | 4771 ft | 233 kts | 198° |
| 2026-05-04 16:10 | 32.78290 | -97.08362 | 6408 ft | 247 kts | 224° |
| 2026-05-04 16:11 | 32.76597 | -97.14082 | 9048 ft | 256 kts | 267° |
| 2026-05-04 16:11 | 32.76662 | -97.16229 | 9788 ft | 264 kts | 275° |
| 2026-05-04 16:12 | 32.77081 | -97.22549 | 10838 ft | 317 kts | 277° |
| 2026-05-04 16:12 | 32.80097 | -97.30703 | 13470 ft | 328 kts | 297° |
| 2026-05-04 16:13 | 32.81877 | -97.34695 | 14728 ft | 330 kts | 297° |
| 2026-05-04 16:13 | 32.84049 | -97.39561 | 16104 ft | 336 kts | 297° |
| 2026-05-04 16:14 | 32.86619 | -97.45349 | 17704 ft | 344 kts | 296° |
| 2026-05-04 16:14 | 32.88489 | -97.49569 | 18795 ft | 349 kts | 296° |
| 2026-05-04 16:15 | 32.91916 | -97.57299 | 20796 ft | 355 kts | 296° |
| 2026-05-04 16:16 | 32.94226 | -97.62531 | 22016 ft | 359 kts | 296° |
| 2026-05-04 16:16 | 32.97742 | -97.70497 | 23689 ft | 365 kts | 296° |
| 2026-05-04 16:17 | 33.00051 | -97.75906 | 24640 ft | 366 kts | 294° |
| 2026-05-04 16:18 | 33.03137 | -97.84236 | 26088 ft | 366 kts | 293° |
| 2026-05-04 16:18 | 33.04148 | -97.87022 | 26571 ft | 366 kts | 293° |
| 2026-05-04 16:19 | 33.07218 | -97.95311 | 27909 ft | 366 kts | 294° |
| 2026-05-04 16:19 | 33.09298 | -98.00858 | 28804 ft | 367 kts | 294° |
| 2026-05-04 16:20 | 33.12417 | -98.09211 | 30051 ft | 368 kts | 294° |
| 2026-05-04 16:20 | 33.14496 | -98.14799 | 30811 ft | 367 kts | 294° |
| 2026-05-04 16:21 | 33.17557 | -98.23066 | 32185 ft | 359 kts | 294° |
| 2026-05-04 16:22 | 33.19573 | -98.28494 | 33112 ft | 355 kts | 294° |
| 2026-05-04 16:22 | 33.22560 | -98.36510 | 33890 ft | 349 kts | 294° |
| 2026-05-04 16:23 | 33.25489 | -98.44425 | 33916 ft | 347 kts | 294° |
| 2026-05-04 16:25 | 33.31316 | -98.60239 | 33907 ft | 346 kts | 294° |
| 2026-05-04 16:26 | 33.38067 | -98.78671 | 33906 ft | 346 kts | 294° |
| 2026-05-04 16:28 | 33.42878 | -98.91840 | 33888 ft | 345 kts | 294° |
| 2026-05-04 16:29 | 33.49573 | -99.10261 | 33829 ft | 344 kts | 293° |
| 2026-05-04 16:31 | 33.54345 | -99.23447 | 33833 ft | 345 kts | 293° |
| 2026-05-04 16:32 | 33.60040 | -99.39285 | 33857 ft | 345 kts | 293° |
| 2026-05-04 16:33 | 33.62304 | -99.44349 | 33854 ft | 348 kts | 305° |
| 2026-05-04 16:33 | 33.65526 | -99.48723 | 33818 ft | 349 kts | 307° |
| 2026-05-04 16:34 | 33.70355 | -99.55286 | 33819 ft | 350 kts | 307° |
| 2026-05-04 16:35 | 33.80026 | -99.68467 | 33811 ft | 351 kts | 307° |
| 2026-05-04 16:36 | 33.84859 | -99.75070 | 33840 ft | 350 kts | 307° |
| 2026-05-04 16:37 | 33.89691 | -99.81665 | 33836 ft | 350 kts | 306° |
| 2026-05-04 16:38 | 33.96110 | -99.90475 | 33811 ft | 350 kts | 306° |
| 2026-05-04 16:39 | 34.04062 | -100.01420 | 33807 ft | 350 kts | 306° |
| 2026-05-04 16:40 | 34.10473 | -100.10251 | 33838 ft | 349 kts | 306° |
| 2026-05-04 16:41 | 34.18444 | -100.21273 | 33819 ft | 348 kts | 306° |
| 2026-05-04 16:43 | 34.26408 | -100.32335 | 33783 ft | 349 kts | 306° |
| 2026-05-04 16:43 | 34.31189 | -100.38984 | 33812 ft | 349 kts | 306° |
| 2026-05-04 16:45 | 34.40724 | -100.52278 | 33789 ft | 348 kts | 306° |
| 2026-05-04 16:46 | 34.48633 | -100.63336 | 33755 ft | 349 kts | 305° |
| 2026-05-04 16:47 | 34.54982 | -100.72247 | 33779 ft | 349 kts | 305° |
| 2026-05-04 16:48 | 34.61316 | -100.81168 | 33774 ft | 349 kts | 305° |
| 2026-05-04 16:49 | 34.67640 | -100.90088 | 33762 ft | 348 kts | 305° |
| 2026-05-04 16:50 | 34.73965 | -100.99019 | 33757 ft | 348 kts | 305° |
| 2026-05-04 16:51 | 34.78690 | -101.05727 | 33773 ft | 348 kts | 304° |
| 2026-05-04 16:52 | 34.84984 | -101.14653 | 33761 ft | 348 kts | 304° |
| 2026-05-04 16:53 | 34.89699 | -101.21369 | 33756 ft | 347 kts | 304° |
| 2026-05-04 16:54 | 34.95970 | -101.30325 | 33741 ft | 347 kts | 304° |
| 2026-05-04 16:55 | 35.05386 | -101.43811 | 33747 ft | 349 kts | 304° |
| 2026-05-04 16:56 | 35.13246 | -101.55089 | 33746 ft | 349 kts | 304° |
| 2026-05-04 16:57 | 35.17950 | -101.61876 | 33907 ft | 349 kts | 304° |
| 2026-05-04 16:58 | 35.24486 | -101.70694 | 33907 ft | 360 kts | 315° |
| 2026-05-04 17:00 | 35.37127 | -101.80920 | 33855 ft | 364 kts | 316° |
| 2026-05-04 17:01 | 35.47673 | -101.89502 | 33774 ft | 364 kts | 316° |
| 2026-05-04 17:02 | 35.55397 | -101.95803 | 33770 ft | 364 kts | 316° |
| 2026-05-04 17:03 | 35.61735 | -102.00964 | 33795 ft | 364 kts | 316° |
| 2026-05-04 17:03 | 35.68061 | -102.06141 | 33839 ft | 364 kts | 316° |
| 2026-05-04 17:04 | 35.76491 | -102.13067 | 33851 ft | 365 kts | 316° |
| 2026-05-04 17:05 | 35.84945 | -102.20006 | 33739 ft | 365 kts | 316° |
| 2026-05-04 17:06 | 35.91271 | -102.25228 | 33816 ft | 365 kts | 315° |
| 2026-05-04 17:07 | 35.96903 | -102.29876 | 33831 ft | 365 kts | 315° |
| 2026-05-04 17:07 | 36.01812 | -102.33937 | 33848 ft | 365 kts | 315° |
| 2026-05-04 17:08 | 36.08153 | -102.39194 | 33860 ft | 366 kts | 315° |
| 2026-05-04 17:09 | 36.12382 | -102.42698 | 33879 ft | 366 kts | 315° |
| 2026-05-04 17:09 | 36.16608 | -102.46219 | 33856 ft | 366 kts | 315° |
| 2026-05-04 17:10 | 36.27149 | -102.54994 | 33795 ft | 366 kts | 315° |
| 2026-05-04 17:11 | 36.31378 | -102.58521 | 33773 ft | 366 kts | 315° |
| 2026-05-04 17:12 | 36.37719 | -102.63831 | 33745 ft | 367 kts | 314° |
| 2026-05-04 17:13 | 36.48283 | -102.72698 | 33722 ft | 368 kts | 315° |
| 2026-05-04 17:14 | 36.56773 | -102.79830 | 33737 ft | 369 kts | 314° |
| 2026-05-04 17:15 | 36.63153 | -102.85215 | 33727 ft | 370 kts | 314° |
| 2026-05-04 17:16 | 36.71676 | -102.92413 | 33728 ft | 370 kts | 314° |
| 2026-05-04 17:17 | 36.80214 | -102.99640 | 33744 ft | 371 kts | 314° |
| 2026-05-04 17:18 | 36.88721 | -103.06871 | 33741 ft | 371 kts | 314° |
| 2026-05-04 17:19 | 36.97254 | -103.14143 | 33719 ft | 371 kts | 313° |
| 2026-05-04 17:20 | 37.05813 | -103.21450 | 33732 ft | 374 kts | 313° |
| 2026-05-04 17:20 | 37.12190 | -103.26915 | 33726 ft | 373 kts | 313° |
| 2026-05-04 17:21 | 37.20773 | -103.34292 | 33762 ft | 374 kts | 313° |
| 2026-05-04 17:22 | 37.25079 | -103.37990 | 33747 ft | 375 kts | 313° |
| 2026-05-04 17:23 | 37.33692 | -103.45405 | 33726 ft | 375 kts | 313° |
| 2026-05-04 17:24 | 37.40142 | -103.50989 | 33709 ft | 376 kts | 313° |
| 2026-05-04 17:25 | 37.48772 | -103.58464 | 33722 ft | 377 kts | 313° |
| 2026-05-04 17:26 | 37.57372 | -103.65951 | 33703 ft | 377 kts | 313° |
| 2026-05-04 17:27 | 37.68168 | -103.75370 | 33692 ft | 377 kts | 313° |
| 2026-05-04 17:28 | 37.76817 | -103.82916 | 33691 ft | 378 kts | 313° |
| 2026-05-04 17:29 | 37.89778 | -103.94303 | 33695 ft | 379 kts | 313° |
| 2026-05-04 17:31 | 38.00606 | -104.03839 | 33680 ft | 379 kts | 313° |
| 2026-05-04 17:32 | 38.11381 | -104.13354 | 33742 ft | 377 kts | 314° |
| 2026-05-04 17:33 | 38.19951 | -104.20974 | 33785 ft | 375 kts | 314° |
| 2026-05-04 17:34 | 38.28505 | -104.28587 | 33848 ft | 375 kts | 314° |
| 2026-05-04 17:35 | 38.39147 | -104.38097 | 33858 ft | 374 kts | 314° |
| 2026-05-04 17:36 | 38.43408 | -104.41908 | 33841 ft | 374 kts | 314° |
| 2026-05-04 17:36 | 38.47665 | -104.45724 | 33832 ft | 374 kts | 314° |
| 2026-05-04 17:37 | 38.51928 | -104.49556 | 33788 ft | 375 kts | 314° |
| 2026-05-04 17:37 | 38.56206 | -104.53401 | 33775 ft | 376 kts | 314° |
| 2026-05-04 17:38 | 38.60484 | -104.57252 | 33750 ft | 376 kts | 314° |
| 2026-05-04 17:38 | 38.64758 | -104.61113 | 33727 ft | 376 kts | 314° |
| 2026-05-04 17:39 | 38.71188 | -104.66928 | 33933 ft | 378 kts | 315° |
| 2026-05-04 17:39 | 38.75494 | -104.70817 | 33951 ft | 379 kts | 315° |
| 2026-05-04 17:40 | 38.79756 | -104.74677 | 33946 ft | 379 kts | 315° |
| 2026-05-04 17:40 | 38.84035 | -104.78564 | 33946 ft | 379 kts | 315° |
| 2026-05-04 17:41 | 38.88347 | -104.82486 | 33967 ft | 380 kts | 315° |
| 2026-05-04 17:41 | 38.92668 | -104.86423 | 33943 ft | 381 kts | 315° |
| 2026-05-04 17:42 | 38.96995 | -104.90370 | 33937 ft | 382 kts | 315° |
| 2026-05-04 17:42 | 39.01328 | -104.94332 | 33922 ft | 382 kts | 315° |
| 2026-05-04 17:43 | 39.05663 | -104.98296 | 33896 ft | 382 kts | 315° |
| 2026-05-04 17:43 | 39.10010 | -105.02281 | 33789 ft | 384 kts | 316° |
| 2026-05-04 17:44 | 39.14341 | -105.06267 | 33777 ft | 385 kts | 315° |
| 2026-05-04 17:44 | 39.18706 | -105.10287 | 33784 ft | 386 kts | 315° |
| 2026-05-04 17:45 | 39.23092 | -105.14314 | 33777 ft | 387 kts | 316° |
| 2026-05-04 17:45 | 39.27478 | -105.18343 | 33799 ft | 387 kts | 316° |
| 2026-05-04 17:46 | 39.31867 | -105.22397 | 33791 ft | 388 kts | 316° |
| 2026-05-04 17:46 | 39.36258 | -105.26463 | 33785 ft | 389 kts | 316° |
| 2026-05-04 17:47 | 39.40661 | -105.30547 | 33766 ft | 390 kts | 316° |
| 2026-05-04 17:47 | 39.45064 | -105.34639 | 33778 ft | 390 kts | 316° |
| 2026-05-04 17:48 | 39.49482 | -105.38744 | 33821 ft | 390 kts | 316° |
| 2026-05-04 17:48 | 39.53143 | -105.42148 | 33812 ft | 390 kts | 316° |
| 2026-05-04 17:49 | 39.57559 | -105.46249 | 33809 ft | 390 kts | 316° |
| 2026-05-04 17:49 | 39.62677 | -105.51026 | 33825 ft | 389 kts | 316° |
| 2026-05-04 17:50 | 39.66353 | -105.54475 | 33826 ft | 389 kts | 316° |
| 2026-05-04 17:50 | 39.70748 | -105.58604 | 33824 ft | 390 kts | 316° |
| 2026-05-04 17:51 | 39.75149 | -105.62715 | 33821 ft | 389 kts | 316° |
| 2026-05-04 17:51 | 39.79528 | -105.66828 | 33829 ft | 393 kts | 316° |
| 2026-05-04 17:52 | 39.83959 | -105.71007 | 33870 ft | 394 kts | 316° |
| 2026-05-04 17:52 | 39.88408 | -105.75200 | 33870 ft | 394 kts | 316° |
| 2026-05-04 17:53 | 39.92851 | -105.79383 | 33892 ft | 393 kts | 316° |
| 2026-05-04 17:53 | 39.97270 | -105.83566 | 33887 ft | 393 kts | 316° |
| 2026-05-04 17:54 | 40.01663 | -105.87727 | 33888 ft | 392 kts | 316° |
| 2026-05-04 17:54 | 40.06077 | -105.91923 | 33919 ft | 392 kts | 316° |
| 2026-05-04 17:55 | 40.10481 | -105.96107 | 33914 ft | 391 kts | 316° |
| 2026-05-04 17:55 | 40.14871 | -106.00292 | 33881 ft | 391 kts | 316° |
| 2026-05-04 17:56 | 40.19267 | -106.04483 | 33863 ft | 391 kts | 316° |
| 2026-05-04 17:56 | 40.23680 | -106.08687 | 33886 ft | 393 kts | 315° |
| 2026-05-04 17:57 | 40.28086 | -106.12904 | 33890 ft | 393 kts | 316° |
| 2026-05-04 17:57 | 40.32492 | -106.17128 | 33870 ft | 392 kts | 315° |
| 2026-05-04 17:58 | 40.36892 | -106.21353 | 33861 ft | 392 kts | 315° |
| 2026-05-04 17:58 | 40.41290 | -106.25579 | 33894 ft | 392 kts | 316° |
| 2026-05-04 17:59 | 40.45693 | -106.29815 | 33861 ft | 392 kts | 316° |
| 2026-05-04 18:00 | 40.52290 | -106.36179 | 33839 ft | 392 kts | 316° |
| 2026-05-04 18:00 | 40.56691 | -106.40443 | 33843 ft | 393 kts | 316° |
| 2026-05-04 18:01 | 40.61095 | -106.44710 | 33866 ft | 394 kts | 316° |
| 2026-05-04 18:01 | 40.65484 | -106.48965 | 33868 ft | 395 kts | 316° |
| 2026-05-04 18:02 | 40.72133 | -106.55427 | 33866 ft | 396 kts | 316° |
| 2026-05-04 18:02 | 40.76565 | -106.59748 | 33853 ft | 396 kts | 316° |
| 2026-05-04 18:03 | 40.81014 | -106.64103 | 33852 ft | 399 kts | 317° |
| 2026-05-04 18:03 | 40.85499 | -106.68490 | 33836 ft | 402 kts | 317° |
| 2026-05-04 18:04 | 40.89996 | -106.72892 | 33808 ft | 402 kts | 316° |
| 2026-05-04 18:05 | 40.96752 | -106.79509 | 33848 ft | 404 kts | 317° |
| 2026-05-04 18:05 | 41.01276 | -106.83962 | 33816 ft | 407 kts | 317° |
| 2026-05-04 18:06 | 41.08123 | -106.90725 | 33804 ft | 411 kts | 317° |
| 2026-05-04 18:06 | 41.12717 | -106.95268 | 33795 ft | 412 kts | 317° |
| 2026-05-04 18:07 | 41.17330 | -106.99823 | 33797 ft | 415 kts | 319° |
| 2026-05-04 18:07 | 41.21980 | -107.04427 | 33776 ft | 418 kts | 319° |
| 2026-05-04 18:08 | 41.26620 | -107.09036 | 33767 ft | 420 kts | 318° |
| 2026-05-04 18:08 | 41.31293 | -107.13699 | 33777 ft | 420 kts | 318° |
| 2026-05-04 18:09 | 41.40695 | -107.23077 | 33753 ft | 425 kts | 320° |
| 2026-05-04 18:10 | 41.45431 | -107.27813 | 33756 ft | 426 kts | 320° |
| 2026-05-04 18:10 | 41.50178 | -107.32569 | 33775 ft | 427 kts | 319° |
| 2026-05-04 18:11 | 41.54921 | -107.37336 | 33799 ft | 427 kts | 319° |
| 2026-05-04 18:11 | 41.59669 | -107.42122 | 33809 ft | 428 kts | 319° |
| 2026-05-04 18:12 | 41.64425 | -107.46911 | 33825 ft | 428 kts | 319° |
| 2026-05-04 18:12 | 41.69177 | -107.51707 | 33832 ft | 428 kts | 320° |
| 2026-05-04 18:13 | 41.73927 | -107.56525 | 33809 ft | 428 kts | 320° |
| 2026-05-04 18:14 | 41.80546 | -107.64506 | 33763 ft | 427 kts | 314° |
| 2026-05-04 18:14 | 41.84860 | -107.69969 | 33751 ft | 427 kts | 314° |
| 2026-05-04 18:15 | 41.93457 | -107.80899 | 33737 ft | 427 kts | 314° |
| 2026-05-04 18:16 | 41.97761 | -107.86401 | 33741 ft | 427 kts | 314° |
| 2026-05-04 18:16 | 42.02067 | -107.91920 | 33751 ft | 427 kts | 314° |
| 2026-05-04 18:17 | 42.08515 | -108.00186 | 33750 ft | 427 kts | 314° |
| 2026-05-04 18:18 | 42.14968 | -108.08479 | 33746 ft | 427 kts | 314° |
| 2026-05-04 18:18 | 42.19261 | -108.14016 | 33755 ft | 427 kts | 314° |
| 2026-05-04 18:19 | 42.25698 | -108.22347 | 33754 ft | 427 kts | 314° |
| 2026-05-04 18:19 | 42.29988 | -108.27903 | 33756 ft | 428 kts | 314° |
| 2026-05-04 18:20 | 42.34285 | -108.33475 | 33771 ft | 428 kts | 314° |
| 2026-05-04 18:20 | 42.38572 | -108.39047 | 33770 ft | 427 kts | 315° |
| 2026-05-04 18:21 | 42.42849 | -108.44627 | 33766 ft | 427 kts | 315° |
| 2026-05-04 18:21 | 42.47132 | -108.50218 | 33764 ft | 427 kts | 315° |
| 2026-05-04 18:22 | 42.51412 | -108.55816 | 33800 ft | 427 kts | 315° |
| 2026-05-04 18:22 | 42.55677 | -108.61422 | 33849 ft | 426 kts | 315° |
| 2026-05-04 18:23 | 42.59933 | -108.67012 | 33882 ft | 426 kts | 315° |
| 2026-05-04 18:23 | 42.64187 | -108.72606 | 33911 ft | 425 kts | 315° |
| 2026-05-04 18:24 | 42.66307 | -108.75401 | 33807 ft | 425 kts | 315° |
| 2026-05-04 18:24 | 42.68401 | -108.78166 | 33805 ft | 424 kts | 315° |
| 2026-05-04 18:24 | 42.72623 | -108.83752 | 33813 ft | 423 kts | 315° |
| 2026-05-04 18:25 | 42.76842 | -108.89338 | 33829 ft | 422 kts | 315° |
| 2026-05-04 18:25 | 42.81049 | -108.94917 | 33829 ft | 422 kts | 315° |
| 2026-05-04 18:26 | 42.85247 | -109.00504 | 33847 ft | 421 kts | 315° |
| 2026-05-04 18:26 | 42.89429 | -109.06077 | 33850 ft | 419 kts | 315° |
| 2026-05-04 18:27 | 42.93594 | -109.11633 | 33847 ft | 419 kts | 314° |
| 2026-05-04 18:27 | 42.97754 | -109.17200 | 33826 ft | 419 kts | 315° |
| 2026-05-04 18:28 | 43.01911 | -109.22780 | 33837 ft | 419 kts | 315° |
| 2026-05-04 18:28 | 43.06063 | -109.28354 | 33792 ft | 419 kts | 315° |
| 2026-05-04 18:29 | 43.08145 | -109.31158 | 33503 ft | 419 kts | 315° |
| 2026-05-04 18:29 | 43.10217 | -109.33952 | 33231 ft | 419 kts | 315° |
| 2026-05-04 18:29 | 43.12296 | -109.36755 | 32963 ft | 420 kts | 315° |
| 2026-05-04 18:29 | 43.14380 | -109.39564 | 32475 ft | 420 kts | 315° |
| 2026-05-04 18:30 | 43.18549 | -109.45192 | 30424 ft | 431 kts | 315° |
| 2026-05-04 18:30 | 43.20688 | -109.48087 | 29541 ft | 432 kts | 315° |
| 2026-05-04 18:30 | 43.22801 | -109.50949 | 28991 ft | 423 kts | 315° |
| 2026-05-04 18:31 | 43.24878 | -109.53766 | 28356 ft | 417 kts | 315° |
| 2026-05-04 18:31 | 43.26929 | -109.56547 | 27743 ft | 412 kts | 315° |
| 2026-05-04 18:31 | 43.28954 | -109.59298 | 27156 ft | 407 kts | 314° |
| 2026-05-04 18:31 | 43.30950 | -109.62013 | 26548 ft | 402 kts | 314° |
| 2026-05-04 18:32 | 43.32926 | -109.64705 | 25969 ft | 398 kts | 314° |
| 2026-05-04 18:32 | 43.34881 | -109.67374 | 25393 ft | 394 kts | 314° |
| 2026-05-04 18:32 | 43.36817 | -109.70016 | 24895 ft | 390 kts | 314° |
| 2026-05-04 18:32 | 43.38740 | -109.72638 | 24334 ft | 388 kts | 314° |
| 2026-05-04 18:33 | 43.40648 | -109.75245 | 23797 ft | 386 kts | 314° |
| 2026-05-04 18:33 | 43.42543 | -109.77839 | 23224 ft | 384 kts | 314° |
| 2026-05-04 18:33 | 43.44424 | -109.80417 | 22696 ft | 380 kts | 314° |
| 2026-05-04 18:33 | 43.46288 | -109.82970 | 22208 ft | 377 kts | 314° |
| 2026-05-04 18:34 | 43.48139 | -109.85503 | 21732 ft | 373 kts | 314° |
| 2026-05-04 18:34 | 43.49969 | -109.88013 | 21274 ft | 370 kts | 313° |
| 2026-05-04 18:34 | 43.51784 | -109.90510 | 20825 ft | 367 kts | 313° |
| 2026-05-04 18:34 | 43.53581 | -109.92983 | 20367 ft | 363 kts | 313° |
| 2026-05-04 18:35 | 43.55356 | -109.95431 | 19919 ft | 359 kts | 313° |
| 2026-05-04 18:35 | 43.57118 | -109.97854 | 19478 ft | 357 kts | 314° |
| 2026-05-04 18:35 | 43.58867 | -110.00263 | 19009 ft | 354 kts | 314° |
| 2026-05-04 18:35 | 43.60017 | -110.01845 | 18683 ft | 352 kts | 313° |
| 2026-05-04 18:36 | 43.61741 | -110.04224 | 18220 ft | 350 kts | 314° |
| 2026-05-04 18:36 | 43.63455 | -110.06596 | 17750 ft | 347 kts | 313° |
| 2026-05-04 18:36 | 43.65153 | -110.08952 | 17281 ft | 344 kts | 313° |
| 2026-05-04 18:36 | 43.66836 | -110.11289 | 16826 ft | 342 kts | 314° |
| 2026-05-04 18:37 | 43.68503 | -110.13606 | 16365 ft | 339 kts | 314° |
| 2026-05-04 18:37 | 43.70165 | -110.15907 | 15900 ft | 337 kts | 313° |
| 2026-05-04 18:37 | 43.71819 | -110.18196 | 15431 ft | 336 kts | 313° |
| 2026-05-04 18:37 | 43.73465 | -110.20481 | 14977 ft | 335 kts | 313° |
| 2026-05-04 18:38 | 43.75103 | -110.22763 | 14516 ft | 334 kts | 313° |
| 2026-05-04 18:38 | 43.76738 | -110.25042 | 14035 ft | 333 kts | 313° |
| 2026-05-04 18:38 | 43.78365 | -110.27307 | 13570 ft | 332 kts | 313° |
| 2026-05-04 18:38 | 43.79985 | -110.29577 | 13062 ft | 329 kts | 312° |
| 2026-05-04 18:39 | 43.81321 | -110.32113 | 12601 ft | 325 kts | 298° |
| 2026-05-04 18:39 | 43.82126 | -110.34929 | 12488 ft | 312 kts | 285° |
| 2026-05-04 18:39 | 43.82438 | -110.37839 | 12385 ft | 301 kts | 272° |
| 2026-05-04 18:39 | 43.82312 | -110.40697 | 12252 ft | 291 kts | 266° |
| 2026-05-04 18:40 | 43.82111 | -110.43412 | 12123 ft | 276 kts | 266° |
| 2026-05-04 18:40 | 43.81926 | -110.45977 | 12008 ft | 259 kts | 266° |
| 2026-05-04 18:40 | 43.81753 | -110.48408 | 11893 ft | 250 kts | 266° |
| 2026-05-04 18:40 | 43.81588 | -110.50750 | 11785 ft | 241 kts | 266° |
| 2026-05-04 18:41 | 43.81364 | -110.53019 | 11676 ft | 234 kts | 257° |
| 2026-05-04 18:41 | 43.80767 | -110.55090 | 11394 ft | 232 kts | 248° |
| 2026-05-04 18:41 | 43.80077 | -110.57096 | 11038 ft | 229 kts | 247° |
| 2026-05-04 18:41 | 43.79400 | -110.59059 | 10715 ft | 225 kts | 247° |
| 2026-05-04 18:42 | 43.78738 | -110.60970 | 10415 ft | 217 kts | 246° |
| 2026-05-04 18:42 | 43.77825 | -110.62601 | 10130 ft | 214 kts | 225° |
| 2026-05-04 18:42 | 43.76671 | -110.63868 | 9834 ft | 210 kts | 221° |
| 2026-05-04 18:42 | 43.75537 | -110.65102 | 9526 ft | 205 kts | 221° |
| 2026-05-04 18:43 | 43.74429 | -110.66311 | 9222 ft | 200 kts | 221° |
| 2026-05-04 18:43 | 43.73349 | -110.67480 | 8961 ft | 198 kts | 219° |
| 2026-05-04 18:43 | 43.72094 | -110.68264 | 8700 ft | 198 kts | 200° |
| 2026-05-04 18:43 | 43.70792 | -110.68871 | 8439 ft | 196 kts | 200° |
| 2026-05-04 18:44 | 43.69518 | -110.69484 | 8174 ft | 191 kts | 201° |
| 2026-05-04 18:44 | 43.68705 | -110.69879 | 8035 ft | 180 kts | 203° |
| 2026-05-04 18:44 | 43.67236 | -110.70595 | 7738 ft | 159 kts | 205° |
| 2026-05-04 18:44 | 43.66227 | -110.71089 | 7535 ft | 150 kts | 204° |
| 2026-05-04 18:45 | 43.65262 | -110.71571 | 7305 ft | 148 kts | 205° |
| 2026-05-04 18:45 | 43.64287 | -110.72041 | 7069 ft | 147 kts | 202° |
| 2026-05-04 18:45 | 43.63325 | -110.72512 | 6895 ft | 147 kts | 202° |
| 2026-05-04 18:45 | 43.62360 | -110.72980 | 6646 ft | 147 kts | 200° |
| 2026-05-04 18:46 | 43.61400 | -110.73447 | 6432 ft | 146 kts | 199° |
| 2026-05-04 18:46 | 43.60601 | -110.73835 | 6421 ft | 83 kts | 199° |
| 2026-05-04 18:46 | 43.60229 | -110.74015 | 6417 ft | 44 kts | 200° |
| 2026-05-04 18:46 | 43.60004 | -110.74129 | 6420 ft | 25 kts | 200° |
| 2026-05-04 18:47 | 43.59912 | -110.74104 | 6421 ft | 14 kts | 115° |
| 2026-05-04 18:47 | 43.59912 | -110.74022 | 6420 ft | 9 kts | 49° |
| 2026-05-04 18:47 | 43.59975 | -110.73984 | 6419 ft | 12 kts | 19° |
| 2026-05-04 18:47 | 43.60059 | -110.73946 | 6418 ft | 14 kts | 18° |
| 2026-05-04 18:48 | 43.60154 | -110.73901 | 6420 ft | 15 kts | 20° |
| 2026-05-04 18:48 | 43.60252 | -110.73852 | 6418 ft | 16 kts | 20° |
| 2026-05-04 18:48 | 43.60349 | -110.73804 | 6419 ft | 12 kts | 19° |
| 2026-05-04 18:48 | 43.60391 | -110.73785 | 6418 ft | 0 kts | 18° |
| 2026-05-04 18:49 | 43.60396 | -110.73779 | 6420 ft | 3 kts | 35° |
| 2026-05-04 18:49 | 43.60397 | -110.73773 | 6421 ft | 0 kts | 70° |
| 2026-05-04 18:50 | 43.60397 | -110.73770 | 6421 ft | 1 kts | 81° |
| 2026-05-04 18:50 | 43.60392 | -110.73749 | 6423 ft | 3 kts | 110° |
| 2026-05-04 18:50 | 43.60387 | -110.73727 | 6423 ft | 2 kts | 110° |
| 2026-05-04 18:50 | 43.60380 | -110.73703 | 6421 ft | 2 kts | 110° |
| 2026-05-04 18:51 | 43.60379 | -110.73698 | 6421 ft | 0 kts | 109° |